Schillplate — ZDJJ8 — position and weather

sailwx.info

Track history (hours):
 
Tides and Currents Weather Stations Pressure Air Temp Water Temp Dewpoint Dewpoint Depression Visibility Wind Speed Wind Dir Waves Ship Positions

Schillplate

Last reported at 2017-Jun-28 04:22 UTC. Time now 2017-Jun-28 05:32 UTC.
Position N 44°02' E 014°06'.

; draft 4.9 m.

Type: Cargo ship. MMSI: 236111603.

Date/timePositionNaut miles runAvg speedWind from/ knotsBaromVisibWave heightAir tempDewpointWater temp
2017-Jun-28 04:22N 44°02' E 014°06'4 9.8
2017-Jun-28 03:57N 44°05' E 014°02'5 9.8
2017-Jun-28 03:29N 44°09' E 013°58'5 9.7
2017-Jun-28 03:00N 44°13' E 013°55'5 9.9
2017-Jun-28 02:30N 44°17' E 013°51'6 9.8
2017-Jun-28 01:54N 44°22' E 013°46'410.0
2017-Jun-28 01:27N 44°25' E 013°43'510.3
2017-Jun-28 00:57N 44°30' E 013°39'510.4
2017-Jun-28 00:30N 44°34' E 013°35'510.3
2017-Jun-28 00:00N 44°38' E 013°31'510.4
2017-Jun-27 23:30N 44°42' E 013°28'510.2
2017-Jun-27 23:00N 44°47' E 013°24'510.2
2017-Jun-27 22:30N 44°51' E 013°20'510.3
2017-Jun-27 22:00N 44°55' E 013°16'510.3
2017-Jun-27 21:30N 44°59' E 013°12'510.2
2017-Jun-27 21:00N 45°04' E 013°08'510.0
2017-Jun-27 20:30N 45°08' E 013°03'5 9.9
2017-Jun-27 20:00N 45°12' E 013°01'510.1
2017-Jun-27 19:30N 45°17' E 012°60'5 9.3
2017-Jun-27 19:00N 45°22' E 013°00'510.4
2017-Jun-27 18:30N 45°26' E 013°06'510.5
2017-Jun-27 18:00N 45°29' E 013°11'510.4
2017-Jun-27 17:30N 45°33' E 013°16'510.3
2017-Jun-27 17:00N 45°35' E 013°23'510.5
2017-Jun-27 16:30N 45°37' E 013°29'510.4
2017-Jun-27 16:00N 45°39' E 013°37'5 9.8
2017-Jun-27 15:31N 45°38' E 013°43'4 7.8
2017-Jun-27 15:00N 45°37' E 013°48'0 0.1
2017-Jun-27 13:59N 45°37' E 013°49'0 0.0
2017-Jun-27 13:29N 45°37' E 013°49'0 0.0
2017-Jun-27 12:56N 45°37' E 013°49'0 0.0
2017-Jun-27 12:17N 45°37' E 013°49'0 0.0
2017-Jun-27 11:59N 45°37' E 013°49'0 0.0
2017-Jun-27 11:29N 45°37' E 013°49'0 0.0
2017-Jun-27 10:59N 45°37' E 013°49'0 0.0
2017-Jun-27 10:29N 45°37' E 013°49'0 0.0
2017-Jun-27 09:59N 45°37' E 013°49'0 0.0
2017-Jun-27 09:26N 45°37' E 013°49'0 0.0
2017-Jun-27 08:56N 45°37' E 013°49'0 0.0
2017-Jun-27 08:26N 45°37' E 013°49'0 0.0
2017-Jun-27 07:50N 45°37' E 013°49'0 0.0
2017-Jun-27 07:26N 45°37' E 013°49'0 0.0
2017-Jun-27 06:56N 45°37' E 013°49'0 0.0
2017-Jun-27 06:23N 45°37' E 013°49'0 0.0
2017-Jun-27 05:50N 45°37' E 013°49'0 0.0
2017-Jun-27 05:29N 45°37' E 013°49'0 0.0
2017-Jun-27 04:59N 45°37' E 013°49'0 0.0
2017-Jun-27 04:23N 45°37' E 013°49'0 0.0
2017-Jun-27 03:59N 45°37' E 013°49'0 0.0
2017-Jun-27 03:29N 45°37' E 013°49'0 0.0
2017-Jun-27 02:59N 45°37' E 013°49'0 0.0
2017-Jun-27 02:26N 45°37' E 013°49'0 0.0
2017-Jun-27 01:56N 45°37' E 013°49'0 0.0
2017-Jun-27 01:29N 45°37' E 013°49'0 0.0
2017-Jun-27 00:56N 45°37' E 013°49'0 0.0
2017-Jun-27 00:29N 45°37' E 013°49'0 0.0
2017-Jun-26 23:59N 45°37' E 013°49'0 0.0
2017-Jun-26 23:29N 45°37' E 013°49'0 0.0
2017-Jun-26 22:59N 45°37' E 013°49'0 0.0
2017-Jun-26 22:29N 45°37' E 013°49'0 0.0
2017-Jun-26 21:50N 45°37' E 013°49'0 0.0
2017-Jun-26 21:23N 45°37' E 013°49'0 0.0
2017-Jun-26 20:53N 45°37' E 013°49'0 0.0
2017-Jun-26 20:29N 45°37' E 013°49'0 0.0
2017-Jun-26 19:59N 45°37' E 013°49'0 0.0
2017-Jun-26 19:29N 45°37' E 013°49'0 0.0
2017-Jun-26 18:44N 45°37' E 013°49'0 0.0
2017-Jun-26 18:29N 45°37' E 013°49'0 0.0
2017-Jun-26 17:56N 45°37' E 013°49'0 0.0
2017-Jun-26 17:23N 45°37' E 013°49'0 0.0
2017-Jun-26 16:53N 45°37' E 013°49'0 0.0
2017-Jun-26 16:26N 45°37' E 013°49'0 0.0
2017-Jun-26 15:53N 45°37' E 013°49'0 0.0
2017-Jun-26 15:26N 45°37' E 013°49'0 0.0
2017-Jun-26 14:59N 45°37' E 013°49'0 0.0
2017-Jun-26 13:56N 45°37' E 013°49'0 0.0
2017-Jun-26 13:29N 45°37' E 013°49'0 0.0
2017-Jun-26 12:50N 45°37' E 013°49'0 0.0
2017-Jun-26 12:29N 45°37' E 013°49'0 0.0
2017-Jun-26 11:50N 45°37' E 013°49'0 0.0
2017-Jun-26 11:29N 45°37' E 013°49'0 0.0
2017-Jun-26 10:59N 45°37' E 013°49'0 0.0
2017-Jun-26 10:29N 45°37' E 013°49'0 0.0
2017-Jun-26 09:50N 45°37' E 013°49'0 0.0
2017-Jun-26 09:26N 45°37' E 013°49'0 0.0
2017-Jun-26 08:56N 45°37' E 013°49'0 0.0
2017-Jun-26 08:29N 45°37' E 013°49'0 0.0
2017-Jun-26 07:59N 45°37' E 013°49'0 0.0
2017-Jun-26 06:19N 45°37' E 013°49'0 0.1
2017-Jun-26 06:00N 45°37' E 013°49'2 3.5
2017-Jun-26 05:30N 45°37' E 013°46'4 7.6
2017-Jun-26 05:01N 45°39' E 013°42'1 1.5
2017-Jun-26 04:23N 45°40' E 013°41'0 0.0
2017-Jun-26 03:59N 45°40' E 013°41'0 0.0
2017-Jun-26 03:29N 45°40' E 013°41'0 0.0
2017-Jun-26 02:53N 45°40' E 013°41'0 0.1
2017-Jun-26 02:29N 45°40' E 013°41'0 0.0
2017-Jun-26 01:59N 45°40' E 013°41'0 0.0
2017-Jun-26 01:29N 45°40' E 013°41'0 0.0
2017-Jun-26 00:59N 45°40' E 013°41'0 0.0
2017-Jun-26 00:29N 45°40' E 013°41'0 0.0
2017-Jun-25 23:56N 45°40' E 013°41'0 0.1
2017-Jun-25 23:29N 45°40' E 013°41'0 0.1
2017-Jun-25 22:59N 45°40' E 013°41'0 0.1
2017-Jun-25 22:23N 45°40' E 013°41'0 0.0
2017-Jun-25 21:59N 45°40' E 013°41'0 0.0
2017-Jun-25 21:26N 45°40' E 013°41'0 0.0
2017-Jun-25 20:59N 45°40' E 013°41'0 0.0
2017-Jun-25 20:29N 45°40' E 013°41'0 0.0
2017-Jun-25 19:59N 45°40' E 013°41'0 0.0
2017-Jun-25 19:29N 45°40' E 013°41'0 0.0
2017-Jun-25 18:59N 45°40' E 013°41'0 0.0
2017-Jun-25 18:29N 45°40' E 013°41'0 0.0
2017-Jun-25 17:56N 45°40' E 013°41'0 0.0
2017-Jun-25 17:29N 45°40' E 013°41'0 0.0
2017-Jun-25 16:56N 45°40' E 013°41'0 0.1
2017-Jun-25 16:29N 45°40' E 013°41'0 0.1
2017-Jun-25 15:56N 45°40' E 013°41'0 0.3
2017-Jun-25 15:26N 45°40' E 013°41'0 0.1
2017-Jun-25 14:53N 45°40' E 013°41'0 0.0
2017-Jun-25 13:59N 45°40' E 013°41'0 0.1
2017-Jun-25 13:29N 45°40' E 013°41'0 0.1
2017-Jun-25 12:59N 45°40' E 013°41'0 0.0
2017-Jun-25 12:11N 45°40' E 013°41'0 0.0
2017-Jun-25 11:56N 45°40' E 013°41'0 0.0
2017-Jun-25 11:26N 45°40' E 013°41'0 0.1
2017-Jun-25 10:59N 45°40' E 013°41'0 0.1
2017-Jun-25 10:29N 45°40' E 013°41'0 0.0
2017-Jun-25 09:59N 45°40' E 013°41'0 0.3
2017-Jun-25 09:29N 45°40' E 013°41'0 0.0
2017-Jun-25 08:59N 45°40' E 013°41'0 0.1
2017-Jun-25 08:26N 45°40' E 013°41'0 0.1
2017-Jun-25 07:59N 45°40' E 013°41'0 0.0
2017-Jun-25 07:26N 45°40' E 013°41'0 0.0
2017-Jun-25 06:59N 45°40' E 013°41'0 0.0
2017-Jun-25 06:29N 45°40' E 013°41'0 0.0
2017-Jun-25 05:59N 45°40' E 013°41'0 0.0
2017-Jun-25 05:29N 45°40' E 013°41'0 0.1
2017-Jun-25 04:59N 45°40' E 013°41'0 0.0
2017-Jun-25 04:29N 45°40' E 013°41'0 0.0
2017-Jun-25 03:59N 45°40' E 013°41'0 0.0
2017-Jun-25 03:29N 45°40' E 013°41'0 0.0
2017-Jun-25 02:59N 45°40' E 013°41'0 0.0
2017-Jun-25 02:29N 45°40' E 013°41'0 0.0
2017-Jun-25 01:59N 45°40' E 013°41'0 0.0
2017-Jun-25 01:29N 45°40' E 013°41'0 0.0
2017-Jun-25 00:56N 45°40' E 013°41'0 0.0
2017-Jun-25 00:17N 45°40' E 013°41'0 0.0
2017-Jun-24 23:59N 45°40' E 013°41'0 0.0
2017-Jun-24 23:29N 45°40' E 013°41'0 0.0
2017-Jun-24 22:59N 45°40' E 013°41'0 0.0
2017-Jun-24 22:29N 45°40' E 013°41'0 0.0
2017-Jun-24 21:59N 45°40' E 013°41'0 0.0
2017-Jun-24 21:29N 45°40' E 013°41'0 0.0
2017-Jun-24 20:59N 45°40' E 013°41'0 0.0
2017-Jun-24 20:29N 45°40' E 013°41'0 0.0
2017-Jun-24 19:59N 45°40' E 013°41'0 0.1
2017-Jun-24 19:23N 45°40' E 013°41'0 0.1
2017-Jun-24 18:56N 45°40' E 013°41'0 0.1
2017-Jun-24 18:29N 45°40' E 013°41'0 0.0
2017-Jun-24 17:53N 45°40' E 013°41'0 0.0
2017-Jun-24 17:29N 45°40' E 013°41'0 0.0
2017-Jun-24 16:59N 45°40' E 013°41'0 0.0
2017-Jun-24 16:29N 45°40' E 013°41'0 0.0
2017-Jun-24 15:53N 45°40' E 013°41'0 0.0
2017-Jun-24 15:29N 45°40' E 013°41'0 0.0
2017-Jun-24 14:59N 45°40' E 013°41'0 0.0
2017-Jun-24 13:59N 45°40' E 013°41'0 0.0
2017-Jun-24 13:29N 45°40' E 013°41'0 0.0
2017-Jun-24 12:59N 45°40' E 013°41'0 0.0
2017-Jun-24 12:29N 45°40' E 013°41'0 0.0
2017-Jun-24 11:59N 45°40' E 013°41'0 0.0
2017-Jun-24 11:29N 45°40' E 013°41'0 0.0
2017-Jun-24 10:56N 45°40' E 013°41'0 0.0
2017-Jun-24 10:29N 45°40' E 013°41'0 0.0
2017-Jun-24 09:56N 45°40' E 013°41'0 0.1
2017-Jun-24 09:23N 45°40' E 013°41'0 0.0
2017-Jun-24 08:59N 45°40' E 013°41'0 0.0
2017-Jun-24 08:23N 45°40' E 013°41'0 0.0
2017-Jun-24 07:59N 45°40' E 013°41'0 0.0
2017-Jun-24 07:29N 45°40' E 013°41'0 0.0
2017-Jun-24 06:59N 45°40' E 013°41'0 0.0
2017-Jun-24 06:29N 45°40' E 013°41'0 0.0
2017-Jun-24 05:53N 45°40' E 013°41'0 0.0
2017-Jun-24 05:29N 45°40' E 013°41'0 0.0
2017-Jun-24 04:59N 45°40' E 013°41'0 0.0
2017-Jun-24 04:29N 45°40' E 013°41'0 0.0
2017-Jun-24 03:59N 45°40' E 013°41'0 0.0
2017-Jun-24 03:29N 45°40' E 013°41'0 0.1
2017-Jun-24 02:59N 45°40' E 013°41'0 0.0
2017-Jun-24 02:23N 45°40' E 013°41'0 0.0
2017-Jun-24 01:56N 45°40' E 013°41'0 0.1
2017-Jun-24 01:29N 45°40' E 013°41'0 0.1
2017-Jun-24 00:59N 45°40' E 013°41'0 0.1
2017-Jun-24 00:30N 45°40' E 013°41'3 6.8
2017-Jun-24 00:00N 45°38' E 013°38'510.0
2017-Jun-23 23:30N 45°35' E 013°32'510.1
2017-Jun-23 23:00N 45°32' E 013°26'510.5
2017-Jun-23 22:30N 45°29' E 013°20'510.8
2017-Jun-23 22:00N 45°25' E 013°14'5 9.9
2017-Jun-23 21:30N 45°20' E 013°13'611.5
2017-Jun-23 21:00N 45°15' E 013°15'510.8
2017-Jun-23 20:30N 45°10' E 013°18'511.1
2017-Jun-23 20:00N 45°05' E 013°22'611.2
2017-Jun-23 19:30N 45°01' E 013°27'611.2
2017-Jun-23 19:00N 44°57' E 013°33'611.4
2017-Jun-23 18:30N 44°52' E 013°38'611.2
2017-Jun-23 18:00N 44°48' E 013°43'510.7
2017-Jun-23 17:30N 44°44' E 013°48'510.6
2017-Jun-23 17:00N 44°43' E 013°55'510.1
2017-Jun-23 16:30N 44°46' E 014°00'510.7
2017-Jun-23 16:00N 44°50' E 014°05'510.0
2017-Jun-23 15:28N 44°55' E 014°09'15 9.9
2017-Jun-23 14:00N 45°09' E 014°15'610.2
2017-Jun-23 13:25N 45°13' E 014°20'4 9.1
2017-Jun-23 12:57N 45°16' E 014°24'4 1.5
2017-Jun-23 10:11N 45°19' E 014°29'0 0.0
2017-Jun-23 09:57N 45°19' E 014°29'0 0.0
2017-Jun-23 09:30N 45°19' E 014°29'0 0.0
2017-Jun-23 07:45N 45°19' E 014°29'0 0.0
2017-Jun-23 07:21N 45°19' E 014°29'0 0.0
2017-Jun-23 07:00N 45°19' E 014°29'0 0.0
2017-Jun-23 06:30N 45°19' E 014°29'0 0.0
2017-Jun-23 05:58N 45°19' E 014°29'0 0.0
2017-Jun-23 05:27N 45°19' E 014°29'0 0.0
2017-Jun-23 04:55N 45°19' E 014°29'0 0.0
2017-Jun-23 04:30N 45°19' E 014°29'0 0.0
2017-Jun-23 03:50N 45°19' E 014°29'0 0.0
2017-Jun-23 03:30N 45°19' E 014°29'0 0.0
2017-Jun-23 02:59N 45°19' E 014°29'0 0.0
2017-Jun-21 10:00N 45°19' E 014°29'0 0.0
2017-Jun-21 07:50N 45°19' E 014°29'0 0.0
2017-Jun-21 06:40N 45°19' E 014°29'0 0.0
2017-Jun-21 06:12N 45°19' E 014°29'0 0.0
2017-Jun-21 05:56N 45°19' E 014°29'0 0.0
2017-Jun-21 05:20N 45°19' E 014°29'0 0.0
2017-Jun-20 21:04N 45°19' E 014°29'0 0.0
2017-Jun-20 20:56N 45°19' E 014°29'0 0.0
2017-Jun-20 19:22N 45°19' E 014°29'0 0.0
2017-Jun-20 16:28N 45°19' E 014°29'0 0.0
2017-Jun-20 14:52N 45°19' E 014°29'1 0.0
2017-Jun-19 12:13N 45°18' E 014°28'1 6.1
2017-Jun-19 12:00N 45°17' E 014°26'0 1.0
2017-Jun-19 11:30N 45°17' E 014°26'0 0.1
2017-Jun-19 11:00N 45°17' E 014°26'0 0.0
2017-Jun-19 10:24N 45°17' E 014°26'0 0.0
2017-Jun-19 10:00N 45°17' E 014°26'0 0.1
2017-Jun-19 09:15N 45°17' E 014°26'0 0.1
2017-Jun-19 08:39N 45°17' E 014°26'0 0.1
2017-Jun-19 08:27N 45°17' E 014°26'0 0.1
2017-Jun-19 07:48N 45°17' E 014°26'0 0.1
2017-Jun-19 07:30N 45°17' E 014°26'0 0.1
2017-Jun-19 07:00N 45°17' E 014°26'0 0.0
2017-Jun-19 06:27N 45°17' E 014°26'0 0.1
2017-Jun-19 06:00N 45°17' E 014°26'0 0.0
2017-Jun-19 05:18N 45°17' E 014°26'0 0.0
2017-Jun-19 04:51N 45°17' E 014°26'0 0.0
2017-Jun-19 04:12N 45°17' E 014°26'0 0.1
2017-Jun-19 04:00N 45°17' E 014°26'0 0.0
2017-Jun-19 03:30N 45°17' E 014°26'0 0.0
2017-Jun-19 02:03N 45°17' E 014°26'0 0.1
2017-Jun-19 02:00N 45°17' E 014°26'0 0.0
2017-Jun-19 01:30N 45°17' E 014°26'0 0.0
2017-Jun-19 00:42N 45°17' E 014°26'0 0.1
2017-Jun-19 00:27N 45°17' E 014°26'0 0.1
2017-Jun-18 23:51N 45°17' E 014°26'0 0.1
2017-Jun-18 23:30N 45°17' E 014°26'0 0.0
2017-Jun-18 22:57N 45°17' E 014°26'0 0.1
2017-Jun-18 22:30N 45°17' E 014°26'0 0.0
2017-Jun-18 21:51N 45°17' E 014°26'0 0.0
2017-Jun-18 21:30N 45°17' E 014°26'0 0.0
2017-Jun-18 20:45N 45°17' E 014°26'0 0.0
2017-Jun-18 20:30N 45°17' E 014°26'0 0.0
2017-Jun-18 19:57N 45°17' E 014°26'0 0.1
2017-Jun-18 19:30N 45°17' E 014°26'3 6.0
2017-Jun-18 18:59N 45°15' E 014°23'5 9.8
2017-Jun-18 18:28N 45°11' E 014°18'15 9.8
2017-Jun-18 16:55N 44°56' E 014°12'510.2
2017-Jun-18 16:24N 44°51' E 014°10'410.0
2017-Jun-18 16:00N 44°47' E 014°09'5 9.5
2017-Jun-18 15:31N 44°43' E 014°07'5 9.5
2017-Jun-18 15:00N 44°38' E 014°06'10 9.9
2017-Jun-18 14:00N 44°28' E 014°06'510.2
2017-Jun-18 13:31N 44°24' E 014°10'510.2
2017-Jun-18 13:00N 44°19' E 014°14'  
Track history (hours):
 
Tides and Currents Weather Stations Pressure Air Temp Water Temp Dewpoint Dewpoint Depression Visibility Wind Speed Wind Dir Waves Ship Positions

Schillplate

Last reported at 2017-Jun-28 04:22 UTC. Time now 2017-Jun-28 05:32 UTC.
Position N 44°02' E 014°06'.

; draft 4.9 m.

Type: Cargo ship. MMSI: 236111603.

Date/timePositionNaut miles runAvg speedWind from/ knotsBaromVisibWave heightAir tempDewpointWater temp
2017-Jun-28 04:22N 44°02' E 014°06'4 9.8
2017-Jun-28 03:57N 44°05' E 014°02'5 9.8
2017-Jun-28 03:29N 44°09' E 013°58'5 9.7
2017-Jun-28 03:00N 44°13' E 013°55'5 9.9
2017-Jun-28 02:30N 44°17' E 013°51'6 9.8
2017-Jun-28 01:54N 44°22' E 013°46'410.0
2017-Jun-28 01:27N 44°25' E 013°43'510.3
2017-Jun-28 00:57N 44°30' E 013°39'510.4
2017-Jun-28 00:30N 44°34' E 013°35'510.3
2017-Jun-28 00:00N 44°38' E 013°31'510.4
2017-Jun-27 23:30N 44°42' E 013°28'510.2
2017-Jun-27 23:00N 44°47' E 013°24'510.2
2017-Jun-27 22:30N 44°51' E 013°20'510.3
2017-Jun-27 22:00N 44°55' E 013°16'510.3
2017-Jun-27 21:30N 44°59' E 013°12'510.2
2017-Jun-27 21:00N 45°04' E 013°08'510.0
2017-Jun-27 20:30N 45°08' E 013°03'5 9.9
2017-Jun-27 20:00N 45°12' E 013°01'510.1
2017-Jun-27 19:30N 45°17' E 012°60'5 9.3
2017-Jun-27 19:00N 45°22' E 013°00'510.4
2017-Jun-27 18:30N 45°26' E 013°06'510.5
2017-Jun-27 18:00N 45°29' E 013°11'510.4
2017-Jun-27 17:30N 45°33' E 013°16'510.3
2017-Jun-27 17:00N 45°35' E 013°23'510.5
2017-Jun-27 16:30N 45°37' E 013°29'510.4
2017-Jun-27 16:00N 45°39' E 013°37'5 9.8
2017-Jun-27 15:31N 45°38' E 013°43'4 7.8
2017-Jun-27 15:00N 45°37' E 013°48'0 0.1
2017-Jun-27 13:59N 45°37' E 013°49'0 0.0
2017-Jun-27 13:29N 45°37' E 013°49'0 0.0
2017-Jun-27 12:56N 45°37' E 013°49'0 0.0
2017-Jun-27 12:17N 45°37' E 013°49'0 0.0
2017-Jun-27 11:59N 45°37' E 013°49'0 0.0
2017-Jun-27 11:29N 45°37' E 013°49'0 0.0
2017-Jun-27 10:59N 45°37' E 013°49'0 0.0
2017-Jun-27 10:29N 45°37' E 013°49'0 0.0
2017-Jun-27 09:59N 45°37' E 013°49'0 0.0
2017-Jun-27 09:26N 45°37' E 013°49'0 0.0
2017-Jun-27 08:56N 45°37' E 013°49'0 0.0
2017-Jun-27 08:26N 45°37' E 013°49'0 0.0
2017-Jun-27 07:50N 45°37' E 013°49'0 0.0
2017-Jun-27 07:26N 45°37' E 013°49'0 0.0
2017-Jun-27 06:56N 45°37' E 013°49'0 0.0
2017-Jun-27 06:23N 45°37' E 013°49'0 0.0
2017-Jun-27 05:50N 45°37' E 013°49'0 0.0
2017-Jun-27 05:29N 45°37' E 013°49'0 0.0
2017-Jun-27 04:59N 45°37' E 013°49'0 0.0
2017-Jun-27 04:23N 45°37' E 013°49'0 0.0
2017-Jun-27 03:59N 45°37' E 013°49'0 0.0
2017-Jun-27 03:29N 45°37' E 013°49'0 0.0
2017-Jun-27 02:59N 45°37' E 013°49'0 0.0
2017-Jun-27 02:26N 45°37' E 013°49'0 0.0
2017-Jun-27 01:56N 45°37' E 013°49'0 0.0
2017-Jun-27 01:29N 45°37' E 013°49'0 0.0
2017-Jun-27 00:56N 45°37' E 013°49'0 0.0
2017-Jun-27 00:29N 45°37' E 013°49'0 0.0
2017-Jun-26 23:59N 45°37' E 013°49'0 0.0
2017-Jun-26 23:29N 45°37' E 013°49'0 0.0
2017-Jun-26 22:59N 45°37' E 013°49'0 0.0
2017-Jun-26 22:29N 45°37' E 013°49'0 0.0
2017-Jun-26 21:50N 45°37' E 013°49'0 0.0
2017-Jun-26 21:23N 45°37' E 013°49'0 0.0
2017-Jun-26 20:53N 45°37' E 013°49'0 0.0
2017-Jun-26 20:29N 45°37' E 013°49'0 0.0
2017-Jun-26 19:59N 45°37' E 013°49'0 0.0
2017-Jun-26 19:29N 45°37' E 013°49'0 0.0
2017-Jun-26 18:44N 45°37' E 013°49'0 0.0
2017-Jun-26 18:29N 45°37' E 013°49'0 0.0
2017-Jun-26 17:56N 45°37' E 013°49'0 0.0
2017-Jun-26 17:23N 45°37' E 013°49'0 0.0
2017-Jun-26 16:53N 45°37' E 013°49'0 0.0
2017-Jun-26 16:26N 45°37' E 013°49'0 0.0
2017-Jun-26 15:53N 45°37' E 013°49'0 0.0
2017-Jun-26 15:26N 45°37' E 013°49'0 0.0
2017-Jun-26 14:59N 45°37' E 013°49'0 0.0
2017-Jun-26 13:56N 45°37' E 013°49'0 0.0
2017-Jun-26 13:29N 45°37' E 013°49'0 0.0
2017-Jun-26 12:50N 45°37' E 013°49'0 0.0
2017-Jun-26 12:29N 45°37' E 013°49'0 0.0
2017-Jun-26 11:50N 45°37' E 013°49'0 0.0
2017-Jun-26 11:29N 45°37' E 013°49'0 0.0
2017-Jun-26 10:59N 45°37' E 013°49'0 0.0
2017-Jun-26 10:29N 45°37' E 013°49'0 0.0
2017-Jun-26 09:50N 45°37' E 013°49'0 0.0
2017-Jun-26 09:26N 45°37' E 013°49'0 0.0
2017-Jun-26 08:56N 45°37' E 013°49'0 0.0
2017-Jun-26 08:29N 45°37' E 013°49'0 0.0
2017-Jun-26 07:59N 45°37' E 013°49'0 0.0
2017-Jun-26 06:19N 45°37' E 013°49'0 0.1
2017-Jun-26 06:00N 45°37' E 013°49'2 3.5
2017-Jun-26 05:30N 45°37' E 013°46'4 7.6
2017-Jun-26 05:01N 45°39' E 013°42'1 1.5
2017-Jun-26 04:23N 45°40' E 013°41'0 0.0
2017-Jun-26 03:59N 45°40' E 013°41'0 0.0
2017-Jun-26 03:29N 45°40' E 013°41'0 0.0
2017-Jun-26 02:53N 45°40' E 013°41'0 0.1
2017-Jun-26 02:29N 45°40' E 013°41'0 0.0
2017-Jun-26 01:59N 45°40' E 013°41'0 0.0
2017-Jun-26 01:29N 45°40' E 013°41'0 0.0
2017-Jun-26 00:59N 45°40' E 013°41'0 0.0
2017-Jun-26 00:29N 45°40' E 013°41'0 0.0
2017-Jun-25 23:56N 45°40' E 013°41'0 0.1
2017-Jun-25 23:29N 45°40' E 013°41'0 0.1
2017-Jun-25 22:59N 45°40' E 013°41'0 0.1
2017-Jun-25 22:23N 45°40' E 013°41'0 0.0
2017-Jun-25 21:59N 45°40' E 013°41'0 0.0
2017-Jun-25 21:26N 45°40' E 013°41'0 0.0
2017-Jun-25 20:59N 45°40' E 013°41'0 0.0
2017-Jun-25 20:29N 45°40' E 013°41'0 0.0
2017-Jun-25 19:59N 45°40' E 013°41'0 0.0
2017-Jun-25 19:29N 45°40' E 013°41'0 0.0
2017-Jun-25 18:59N 45°40' E 013°41'0 0.0
2017-Jun-25 18:29N 45°40' E 013°41'0 0.0
2017-Jun-25 17:56N 45°40' E 013°41'0 0.0
2017-Jun-25 17:29N 45°40' E 013°41'0 0.0
2017-Jun-25 16:56N 45°40' E 013°41'0 0.1
2017-Jun-25 16:29N 45°40' E 013°41'0 0.1
2017-Jun-25 15:56N 45°40' E 013°41'0 0.3
2017-Jun-25 15:26N 45°40' E 013°41'0 0.1
2017-Jun-25 14:53N 45°40' E 013°41'0 0.0
2017-Jun-25 13:59N 45°40' E 013°41'0 0.1
2017-Jun-25 13:29N 45°40' E 013°41'0 0.1
2017-Jun-25 12:59N 45°40' E 013°41'0 0.0
2017-Jun-25 12:11N 45°40' E 013°41'0 0.0
2017-Jun-25 11:56N 45°40' E 013°41'0 0.0
2017-Jun-25 11:26N 45°40' E 013°41'0 0.1
2017-Jun-25 10:59N 45°40' E 013°41'0 0.1
2017-Jun-25 10:29N 45°40' E 013°41'0 0.0
2017-Jun-25 09:59N 45°40' E 013°41'0 0.3
2017-Jun-25 09:29N 45°40' E 013°41'0 0.0
2017-Jun-25 08:59N 45°40' E 013°41'0 0.1
2017-Jun-25 08:26N 45°40' E 013°41'0 0.1
2017-Jun-25 07:59N 45°40' E 013°41'0 0.0
2017-Jun-25 07:26N 45°40' E 013°41'0 0.0
2017-Jun-25 06:59N 45°40' E 013°41'0 0.0
2017-Jun-25 06:29N 45°40' E 013°41'0 0.0
2017-Jun-25 05:59N 45°40' E 013°41'0 0.0
2017-Jun-25 05:29N 45°40' E 013°41'0 0.1
2017-Jun-25 04:59N 45°40' E 013°41'0 0.0
2017-Jun-25 04:29N 45°40' E 013°41'0 0.0
2017-Jun-25 03:59N 45°40' E 013°41'0 0.0
2017-Jun-25 03:29N 45°40' E 013°41'0 0.0
2017-Jun-25 02:59N 45°40' E 013°41'0 0.0
2017-Jun-25 02:29N 45°40' E 013°41'0 0.0
2017-Jun-25 01:59N 45°40' E 013°41'0 0.0
2017-Jun-25 01:29N 45°40' E 013°41'0 0.0
2017-Jun-25 00:56N 45°40' E 013°41'0 0.0
2017-Jun-25 00:17N 45°40' E 013°41'0 0.0
2017-Jun-24 23:59N 45°40' E 013°41'0 0.0
2017-Jun-24 23:29N 45°40' E 013°41'0 0.0
2017-Jun-24 22:59N 45°40' E 013°41'0 0.0
2017-Jun-24 22:29N 45°40' E 013°41'0 0.0
2017-Jun-24 21:59N 45°40' E 013°41'0 0.0
2017-Jun-24 21:29N 45°40' E 013°41'0 0.0
2017-Jun-24 20:59N 45°40' E 013°41'0 0.0
2017-Jun-24 20:29N 45°40' E 013°41'0 0.0
2017-Jun-24 19:59N 45°40' E 013°41'0 0.1
2017-Jun-24 19:23N 45°40' E 013°41'0 0.1
2017-Jun-24 18:56N 45°40' E 013°41'0 0.1
2017-Jun-24 18:29N 45°40' E 013°41'0 0.0
2017-Jun-24 17:53N 45°40' E 013°41'0 0.0
2017-Jun-24 17:29N 45°40' E 013°41'0 0.0
2017-Jun-24 16:59N 45°40' E 013°41'0 0.0
2017-Jun-24 16:29N 45°40' E 013°41'0 0.0
2017-Jun-24 15:53N 45°40' E 013°41'0 0.0
2017-Jun-24 15:29N 45°40' E 013°41'0 0.0
2017-Jun-24 14:59N 45°40' E 013°41'0 0.0
2017-Jun-24 13:59N 45°40' E 013°41'0 0.0
2017-Jun-24 13:29N 45°40' E 013°41'0 0.0
2017-Jun-24 12:59N 45°40' E 013°41'0 0.0
2017-Jun-24 12:29N 45°40' E 013°41'0 0.0
2017-Jun-24 11:59N 45°40' E 013°41'0 0.0
2017-Jun-24 11:29N 45°40' E 013°41'0 0.0
2017-Jun-24 10:56N 45°40' E 013°41'0 0.0
2017-Jun-24 10:29N 45°40' E 013°41'0 0.0
2017-Jun-24 09:56N 45°40' E 013°41'0 0.1
2017-Jun-24 09:23N 45°40' E 013°41'0 0.0
2017-Jun-24 08:59N 45°40' E 013°41'0 0.0
2017-Jun-24 08:23N 45°40' E 013°41'0 0.0
2017-Jun-24 07:59N 45°40' E 013°41'0 0.0
2017-Jun-24 07:29N 45°40' E 013°41'0 0.0
2017-Jun-24 06:59N 45°40' E 013°41'0 0.0
2017-Jun-24 06:29N 45°40' E 013°41'0 0.0
2017-Jun-24 05:53N 45°40' E 013°41'0 0.0
2017-Jun-24 05:29N 45°40' E 013°41'0 0.0
2017-Jun-24 04:59N 45°40' E 013°41'0 0.0
2017-Jun-24 04:29N 45°40' E 013°41'0 0.0
2017-Jun-24 03:59N 45°40' E 013°41'0 0.0
2017-Jun-24 03:29N 45°40' E 013°41'0 0.1
2017-Jun-24 02:59N 45°40' E 013°41'0 0.0
2017-Jun-24 02:23N 45°40' E 013°41'0 0.0
2017-Jun-24 01:56N 45°40' E 013°41'0 0.1
2017-Jun-24 01:29N 45°40' E 013°41'0 0.1
2017-Jun-24 00:59N 45°40' E 013°41'0 0.1
2017-Jun-24 00:30N 45°40' E 013°41'3 6.8
2017-Jun-24 00:00N 45°38' E 013°38'510.0
2017-Jun-23 23:30N 45°35' E 013°32'510.1
2017-Jun-23 23:00N 45°32' E 013°26'510.5
2017-Jun-23 22:30N 45°29' E 013°20'510.8
2017-Jun-23 22:00N 45°25' E 013°14'5 9.9
2017-Jun-23 21:30N 45°20' E 013°13'611.5
2017-Jun-23 21:00N 45°15' E 013°15'510.8
2017-Jun-23 20:30N 45°10' E 013°18'511.1
2017-Jun-23 20:00N 45°05' E 013°22'611.2
2017-Jun-23 19:30N 45°01' E 013°27'611.2
2017-Jun-23 19:00N 44°57' E 013°33'611.4
2017-Jun-23 18:30N 44°52' E 013°38'611.2
2017-Jun-23 18:00N 44°48' E 013°43'510.7
2017-Jun-23 17:30N 44°44' E 013°48'510.6
2017-Jun-23 17:00N 44°43' E 013°55'510.1
2017-Jun-23 16:30N 44°46' E 014°00'510.7
2017-Jun-23 16:00N 44°50' E 014°05'510.0
2017-Jun-23 15:28N 44°55' E 014°09'15 9.9
2017-Jun-23 14:00N 45°09' E 014°15'610.2
2017-Jun-23 13:25N 45°13' E 014°20'4 9.1
2017-Jun-23 12:57N 45°16' E 014°24'4 1.5
2017-Jun-23 10:11N 45°19' E 014°29'0 0.0
2017-Jun-23 09:57N 45°19' E 014°29'0 0.0
2017-Jun-23 09:30N 45°19' E 014°29'0 0.0
2017-Jun-23 07:45N 45°19' E 014°29'0 0.0
2017-Jun-23 07:21N 45°19' E 014°29'0 0.0
2017-Jun-23 07:00N 45°19' E 014°29'0 0.0
2017-Jun-23 06:30N 45°19' E 014°29'0 0.0
2017-Jun-23 05:58N 45°19' E 014°29'0 0.0
2017-Jun-23 05:27N 45°19' E 014°29'0 0.0
2017-Jun-23 04:55N 45°19' E 014°29'0 0.0
2017-Jun-23 04:30N 45°19' E 014°29'0 0.0
2017-Jun-23 03:50N 45°19' E 014°29'0 0.0
2017-Jun-23 03:30N 45°19' E 014°29'0 0.0
2017-Jun-23 02:59N 45°19' E 014°29'0 0.0
2017-Jun-21 10:00N 45°19' E 014°29'0 0.0
2017-Jun-21 07:50N 45°19' E 014°29'0 0.0
2017-Jun-21 06:40N 45°19' E 014°29'0 0.0
2017-Jun-21 06:12N 45°19' E 014°29'0 0.0
2017-Jun-21 05:56N 45°19' E 014°29'0 0.0
2017-Jun-21 05:20N 45°19' E 014°29'0 0.0
2017-Jun-20 21:04N 45°19' E 014°29'0 0.0
2017-Jun-20 20:56N 45°19' E 014°29'0 0.0
2017-Jun-20 19:22N 45°19' E 014°29'0 0.0
2017-Jun-20 16:28N 45°19' E 014°29'0 0.0
2017-Jun-20 14:52N 45°19' E 014°29'1 0.0
2017-Jun-19 12:13N 45°18' E 014°28'1 6.1
2017-Jun-19 12:00N 45°17' E 014°26'0 1.0
2017-Jun-19 11:30N 45°17' E 014°26'0 0.1
2017-Jun-19 11:00N 45°17' E 014°26'0 0.0
2017-Jun-19 10:24N 45°17' E 014°26'0 0.0
2017-Jun-19 10:00N 45°17' E 014°26'0 0.1
2017-Jun-19 09:15N 45°17' E 014°26'0 0.1
2017-Jun-19 08:39N 45°17' E 014°26'0 0.1
2017-Jun-19 08:27N 45°17' E 014°26'0 0.1
2017-Jun-19 07:48N 45°17' E 014°26'0 0.1
2017-Jun-19 07:30N 45°17' E 014°26'0 0.1
2017-Jun-19 07:00N 45°17' E 014°26'0 0.0
2017-Jun-19 06:27N 45°17' E 014°26'0 0.1
2017-Jun-19 06:00N 45°17' E 014°26'0 0.0
2017-Jun-19 05:18N 45°17' E 014°26'0 0.0
2017-Jun-19 04:51N 45°17' E 014°26'0 0.0
2017-Jun-19 04:12N 45°17' E 014°26'0 0.1
2017-Jun-19 04:00N 45°17' E 014°26'0 0.0
2017-Jun-19 03:30N 45°17' E 014°26'0 0.0
2017-Jun-19 02:03N 45°17' E 014°26'0 0.1
2017-Jun-19 02:00N 45°17' E 014°26'0 0.0
2017-Jun-19 01:30N 45°17' E 014°26'0 0.0
2017-Jun-19 00:42N 45°17' E 014°26'0 0.1
2017-Jun-19 00:27N 45°17' E 014°26'0 0.1
2017-Jun-18 23:51N 45°17' E 014°26'0 0.1
2017-Jun-18 23:30N 45°17' E 014°26'0 0.0
2017-Jun-18 22:57N 45°17' E 014°26'0 0.1
2017-Jun-18 22:30N 45°17' E 014°26'0 0.0
2017-Jun-18 21:51N 45°17' E 014°26'0 0.0
2017-Jun-18 21:30N 45°17' E 014°26'0 0.0
2017-Jun-18 20:45N 45°17' E 014°26'0 0.0
2017-Jun-18 20:30N 45°17' E 014°26'0 0.0
2017-Jun-18 19:57N 45°17' E 014°26'0 0.1
2017-Jun-18 19:30N 45°17' E 014°26'3 6.0
2017-Jun-18 18:59N 45°15' E 014°23'5 9.8
2017-Jun-18 18:28N 45°11' E 014°18'15 9.8
2017-Jun-18 16:55N 44°56' E 014°12'510.2
2017-Jun-18 16:24N 44°51' E 014°10'410.0
2017-Jun-18 16:00N 44°47' E 014°09'5 9.5
2017-Jun-18 15:31N 44°43' E 014°07'5 9.5
2017-Jun-18 15:00N 44°38' E 014°06'10 9.9
2017-Jun-18 14:00N 44°28' E 014°06'510.2
2017-Jun-18 13:31N 44°24' E 014°10'510.2
2017-Jun-18 13:00N 44°19' E 014°14'  

Dump ship's entire track history